Time;durP1;ratioP1;P1;durP2;ratioP2;P2;SDS_P1;SDS_P2;PMS_P1;PMS_P2;Temp;Humidity;BMP_temperature;BMP_pressure;BME280_temperature;BME280_humidity;BME280_pressure;Samples;Min_cycle;Max_cycle;Signal;HPM_P1;HPM_P2
2022/09/11 00:01:54;;;;;;;4.07;3.40;;;;;;;;;;4993215;28;20194;-77
2022/09/11 00:04:19;;;;;;;3.57;2.93;;;;;;;;;;4991190;28;20177;-76
2022/09/11 00:06:45;;;;;;;3.17;2.97;;;;;;;;;;4990485;28;20260;-77
2022/09/11 00:09:10;;;;;;;3.57;3.27;;;;;;;;;;4993338;28;20204;-76
2022/09/11 00:11:39;;;;;;;3.50;2.73;;;;;;;;;;4992160;28;20186;-77
2022/09/11 00:14:05;;;;;;;5.37;3.87;;;;;;;;;;4993711;28;20274;-76
2022/09/11 00:16:34;;;;;;;5.63;3.93;;;;;;;;;;4993522;28;20201;-76
2022/09/11 00:19:04;;;;;;;4.97;3.13;;;;;;;;;;5008033;28;20209;-76
2022/09/11 00:21:29;;;;;;;5.37;3.33;;;;;;;;;;5008116;28;20177;-76
2022/09/11 00:23:55;;;;;;;7.27;3.73;;;;;;;;;;5008502;28;20184;-76
2022/09/11 00:26:20;;;;;;;3.87;3.50;;;;;;;;;;4993780;28;20232;-76
2022/09/11 00:28:46;;;;;;;4.40;4.00;;;;;;;;;;5100399;23;20240;-77
2022/09/11 00:31:13;;;;;;;5.53;4.00;;;;;;;;;;5030009;28;20204;-77
2022/09/11 00:33:39;;;;;;;6.90;4.53;;;;;;;;;;5030664;28;20208;-77
2022/09/11 00:36:06;;;;;;;5.70;4.43;;;;;;;;;;5039917;28;20177;-77
2022/09/11 00:38:33;;;;;;;9.83;4.30;;;;;;;;;;5037393;28;20629;-77
2022/09/11 00:40:59;;;;;;;7.23;4.50;;;;;;;;;;5060500;28;20230;-77
2022/09/11 00:43:25;;;;;;;4.83;4.43;;;;;;;;;;5039168;28;20179;-76
2022/09/11 00:45:53;;;;;;;5.57;4.03;;;;;;;;;;5052722;28;20190;-76
2022/09/11 00:48:20;;;;;;;6.07;4.17;;;;;;;;;;5047136;28;20188;-76
2022/09/11 00:50:47;;;;;;;4.73;3.70;;;;;;;;;;5044157;28;20217;-76
2022/09/11 00:53:14;;;;;;;4.10;3.80;;;;;;;;;;5063620;28;20192;-76
2022/09/11 00:55:42;;;;;;;4.40;4.00;;;;;;;;;;5071728;28;20204;-76
2022/09/11 00:58:09;;;;;;;7.53;4.77;;;;;;;;;;5049592;28;20270;-75
2022/09/11 01:00:35;;;;;;;5.47;4.90;;;;;;;;;;5050360;28;20205;-75
2022/09/11 01:03:02;;;;;;;5.50;4.80;;;;;;;;;;5048570;28;20178;-76
2022/09/11 01:05:27;;;;;;;6.10;4.67;;;;;;;;;;5070019;28;20177;-76
2022/09/11 01:07:54;;;;;;;5.23;4.73;;;;;;;;;;5048711;28;20180;-76
2022/09/11 01:10:25;;;;;;;8.17;5.23;;;;;;;;;;5068173;28;20191;-76
2022/09/11 01:13:04;;;;;;;6.33;5.73;;;;;;;;;;5042376;28;20190;-76
2022/09/11 01:15:34;;;;;;;8.13;6.23;;;;;;;;;;5053933;28;20215;-76
2022/09/11 01:18:12;;;;;;;7.10;6.00;;;;;;;;;;5048844;28;20187;-76
2022/09/11 01:20:42;;;;;;;8.20;7.27;;;;;;;;;;5054218;28;20211;-76
2022/09/11 01:23:32;;;;;;;9.07;7.37;;;;;;;;;;5064630;28;20223;-76
2022/09/11 01:26:05;;;;;;;7.10;6.50;;;;;;;;;;5049865;28;20227;-76
2022/09/11 01:28:35;;;;;;;8.70;7.87;;;;;;;;;;5065787;28;20289;-76
2022/09/11 01:31:04;;;;;;;7.90;7.10;;;;;;;;;;5042483;28;20177;-76
2022/09/11 01:33:50;;;;;;;8.47;7.20;;;;;;;;;;5063727;28;20217;-76
2022/09/11 01:36:20;;;;;;;7.50;6.80;;;;;;;;;;5062692;28;20196;-76
2022/09/11 01:38:45;;;;;;;7.33;6.63;;;;;;;;;;5049088;28;20293;-76
2022/09/11 01:41:19;;;;;;;10.43;6.70;;;;;;;;;;5063123;28;20243;-76
2022/09/11 01:43:55;;;;;;;6.80;6.10;;;;;;;;;;5051077;28;20182;-76
2022/09/11 01:46:21;;;;;;;5.67;5.17;;;;;;;;;;5045983;28;20289;-76
2022/09/11 01:48:49;;;;;;;4.77;3.70;;;;;;;;;;5046034;28;20196;-76
2022/09/11 01:51:17;;;;;;;6.73;5.37;;;;;;;;;;5066043;28;20210;-76
2022/09/11 01:53:44;;;;;;;5.27;4.77;;;;;;;;;;5044082;28;20255;-76
2022/09/11 01:56:12;;;;;;;4.30;3.90;;;;;;;;;;5047139;28;20177;-76
2022/09/11 01:58:39;;;;;;;5.70;4.27;;;;;;;;;;5049771;28;20199;-76
2022/09/11 02:01:14;;;;;;;4.73;4.33;;;;;;;;;;5069791;28;20303;-76
2022/09/11 02:03:55;;;;;;;6.00;5.20;;;;;;;;;;5052099;28;20182;-76
2022/09/11 02:06:25;;;;;;;6.43;4.40;;;;;;;;;;5059530;28;20185;-76
2022/09/11 02:08:53;;;;;;;4.83;4.43;;;;;;;;;;5040107;28;20278;-76
2022/09/11 02:11:18;;;;;;;5.00;4.40;;;;;;;;;;5068422;28;20188;-76
2022/09/11 02:13:59;;;;;;;4.60;3.50;;;;;;;;;;5049971;28;20195;-76
2022/09/11 02:16:43;;;;;;;4.07;3.77;;;;;;;;;;5065024;28;20230;-76
2022/09/11 02:19:10;;;;;;;4.30;3.90;;;;;;;;;;5040022;28;20200;-76
2022/09/11 02:21:36;;;;;;;6.07;5.00;;;;;;;;;;5069142;28;20270;-76
2022/09/11 02:24:01;;;;;;;5.67;5.17;;;;;;;;;;5047274;28;20227;-76
2022/09/11 02:26:28;;;;;;;6.57;5.87;;;;;;;;;;5043760;28;20185;-76
2022/09/11 02:28:53;;;;;;;8.00;7.20;;;;;;;;;;5065092;28;20239;-76
2022/09/11 02:31:19;;;;;;;9.30;6.70;;;;;;;;;;5042181;28;20194;-76
2022/09/11 02:33:44;;;;;;;7.83;7.10;;;;;;;;;;5052541;28;20205;-76
2022/09/11 02:36:26;;;;;;;10.17;9.23;;;;;;;;;;5039893;28;20206;-76
2022/09/11 02:39:04;;;;;;;11.23;9.63;;;;;;;;;;5044620;28;20212;-76
2022/09/11 02:41:36;;;;;;;11.03;10.00;;;;;;;;;;5041605;28;20189;-76
2022/09/11 02:44:12;;;;;;;12.80;11.47;;;;;;;;;;5043621;28;20204;-76
2022/09/11 02:46:44;;;;;;;10.63;9.63;;;;;;;;;;5036118;28;20180;-76
2022/09/11 02:49:18;;;;;;;10.73;9.83;;;;;;;;;;5043115;28;20195;-76
2022/09/11 02:51:43;;;;;;;11.23;10.13;;;;;;;;;;5049546;28;20196;-76
2022/09/11 02:54:09;;;;;;;10.05;9.15;;;;;;;;;;5043528;28;20180;-76
2022/09/11 02:56:34;;;;;;;10.80;9.03;;;;;;;;;;5050108;28;20184;-76
2022/09/11 02:59:02;;;;;;;11.60;10.07;;;;;;;;;;5052926;28;20202;-76
2022/09/11 03:01:27;;;;;;;10.67;9.67;;;;;;;;;;5066513;28;20500;-77
2022/09/11 03:03:52;;;;;;;10.40;9.53;;;;;;;;;;5052063;28;20177;-76
2022/09/11 03:06:21;;;;;;;11.30;10.20;;;;;;;;;;5061288;28;20227;-76
2022/09/11 03:08:47;;;;;;;12.30;9.93;;;;;;;;;;5040437;28;20185;-76
2022/09/11 03:11:14;;;;;;;12.43;11.33;;;;;;;;;;5043536;28;20190;-76
2022/09/11 03:13:39;;;;;;;12.40;11.30;;;;;;;;;;5044660;28;20180;-76
2022/09/11 03:16:05;;;;;;;11.43;10.23;;;;;;;;;;5051327;28;20187;-77
2022/09/11 03:18:30;;;;;;;11.87;10.67;;;;;;;;;;5046490;28;20184;-77
2022/09/11 03:20:55;;;;;;;12.60;11.40;;;;;;;;;;5070889;28;20199;-76
2022/09/11 03:23:21;;;;;;;11.40;10.30;;;;;;;;;;5052991;28;20183;-76
2022/09/11 03:25:46;;;;;;;11.17;9.63;;;;;;;;;;5066193;28;20184;-77
2022/09/11 03:28:12;;;;;;;12.27;10.87;;;;;;;;;;5042728;28;20231;-77
2022/09/11 03:30:38;;;;;;;12.03;9.83;;;;;;;;;;5052387;28;20180;-77
2022/09/11 03:33:03;;;;;;;11.97;10.73;;;;;;;;;;5053367;28;20188;-77
2022/09/11 03:35:29;;;;;;;12.40;11.20;;;;;;;;;;5050119;28;20286;-77
2022/09/11 03:37:57;;;;;;;12.63;11.53;;;;;;;;;;5053143;28;20176;-77
2022/09/11 03:40:22;;;;;;;11.63;10.43;;;;;;;;;;5073983;28;20234;-77
2022/09/11 03:42:47;;;;;;;14.50;12.23;;;;;;;;;;5052566;28;20185;-77
2022/09/11 03:45:13;;;;;;;12.67;11.27;;;;;;;;;;5050409;28;20181;-77
2022/09/11 03:47:39;;;;;;;14.20;11.67;;;;;;;;;;5070555;28;20198;-77
2022/09/11 03:50:05;;;;;;;12.33;11.07;;;;;;;;;;5052811;28;20192;-77
2022/09/11 03:52:30;;;;;;;13.07;11.70;;;;;;;;;;5041780;28;20209;-77
2022/09/11 03:54:56;;;;;;;12.37;10.80;;;;;;;;;;5070723;28;20176;-77
2022/09/11 03:57:22;;;;;;;12.53;11.43;;;;;;;;;;5051841;28;20191;-77
2022/09/11 03:59:47;;;;;;;12.10;10.90;;;;;;;;;;5052542;28;20232;-77
2022/09/11 04:02:12;;;;;;;12.43;11.27;;;;;;;;;;5042576;28;20184;-77
2022/09/11 04:04:37;;;;;;;13.63;12.33;;;;;;;;;;5059413;28;20612;-77
2022/09/11 04:07:03;;;;;;;13.40;11.90;;;;;;;;;;5070655;28;20202;-77
2022/09/11 04:09:30;;;;;;;14.37;12.77;;;;;;;;;;5043177;28;20188;-77
2022/09/11 04:11:55;;;;;;;14.27;12.90;;;;;;;;;;5052949;28;20240;-77
2022/09/11 04:14:21;;;;;;;14.10;12.60;;;;;;;;;;5051947;28;20279;-77
2022/09/11 04:16:46;;;;;;;13.60;12.40;;;;;;;;;;5071424;28;20210;-77
2022/09/11 04:19:12;;;;;;;13.37;12.13;;;;;;;;;;5045384;28;20361;-77
2022/09/11 04:21:38;;;;;;;13.27;11.90;;;;;;;;;;5067548;28;20201;-77
2022/09/11 04:24:04;;;;;;;13.67;12.27;;;;;;;;;;5065578;28;20175;-77
2022/09/11 04:26:30;;;;;;;14.70;12.23;;;;;;;;;;5047750;28;20184;-77
2022/09/11 04:28:56;;;;;;;13.63;12.37;;;;;;;;;;5053399;28;20225;-77
2022/09/11 04:31:21;;;;;;;13.40;12.10;;;;;;;;;;5037935;28;20183;-77
2022/09/11 04:33:47;;;;;;;15.10;13.63;;;;;;;;;;5039368;28;20204;-77
2022/09/11 04:36:16;;;;;;;14.77;13.37;;;;;;;;;;5050870;28;20228;-77
2022/09/11 04:38:41;;;;;;;13.57;12.27;;;;;;;;;;5051515;28;20212;-77
2022/09/11 04:41:08;;;;;;;15.80;14.20;;;;;;;;;;5053718;28;20248;-77
2022/09/11 04:43:34;;;;;;;14.97;13.30;;;;;;;;;;5058945;28;20189;-77
2022/09/11 04:46:00;;;;;;;13.37;12.07;;;;;;;;;;5055765;28;20173;-77
2022/09/11 04:48:25;;;;;;;14.60;12.27;;;;;;;;;;5072912;28;20186;-77
2022/09/11 04:50:57;;;;;;;14.47;12.13;;;;;;;;;;5072906;28;20168;-77
2022/09/11 04:53:22;;;;;;;13.90;12.50;;;;;;;;;;5057889;28;20183;-77
2022/09/11 04:55:49;;;;;;;14.90;13.40;;;;;;;;;;5055614;28;20184;-77
2022/09/11 04:58:14;;;;;;;13.67;12.30;;;;;;;;;;5054396;28;20185;-77
2022/09/11 05:00:40;;;;;;;13.40;12.13;;;;;;;;;;5073910;28;20205;-77
2022/09/11 05:03:05;;;;;;;15.03;13.47;;;;;;;;;;5056512;28;20206;-77
2022/09/11 05:05:30;;;;;;;13.23;11.83;;;;;;;;;;5056066;28;20177;-77
2022/09/11 05:07:56;;;;;;;13.50;11.53;;;;;;;;;;5055680;28;20170;-77
2022/09/11 05:10:21;;;;;;;13.07;11.80;;;;;;;;;;5068775;28;20188;-77
2022/09/11 05:12:46;;;;;;;13.97;11.93;;;;;;;;;;5056669;28;20201;-77
2022/09/11 05:15:11;;;;;;;15.90;12.70;;;;;;;;;;5054050;28;20598;-77
2022/09/11 05:17:38;;;;;;;14.10;12.77;;;;;;;;;;5055071;28;20186;-77
2022/09/11 05:20:03;;;;;;;14.93;13.43;;;;;;;;;;5054667;28;20209;-77
2022/09/11 05:22:29;;;;;;;15.33;13.50;;;;;;;;;;5052541;28;20181;-77
2022/09/11 05:24:54;;;;;;;14.10;12.60;;;;;;;;;;5069749;28;20251;-77
2022/09/11 05:27:23;;;;;;;14.13;12.73;;;;;;;;;;5079548;28;20220;-77
2022/09/11 05:29:48;;;;;;;14.57;12.90;;;;;;;;;;5050325;28;20278;-77
2022/09/11 05:32:13;;;;;;;15.00;13.53;;;;;;;;;;5054384;28;20283;-77
2022/09/11 05:34:39;;;;;;;15.40;13.83;;;;;;;;;;5050199;28;20241;-77
2022/09/11 05:37:04;;;;;;;17.33;14.50;;;;;;;;;;5072273;28;20176;-77
2022/09/11 05:39:29;;;;;;;16.77;14.97;;;;;;;;;;5052431;28;20312;-77
2022/09/11 05:41:54;;;;;;;16.73;14.97;;;;;;;;;;5058027;28;20171;-77
2022/09/11 05:44:20;;;;;;;18.87;15.07;;;;;;;;;;5047052;28;20182;-77
2022/09/11 05:46:45;;;;;;;17.07;15.20;;;;;;;;;;5053721;28;20213;-77
2022/09/11 05:49:10;;;;;;;17.80;15.43;;;;;;;;;;5055935;28;20247;-77
2022/09/11 05:51:36;;;;;;;17.57;15.77;;;;;;;;;;5046222;28;20180;-77
2022/09/11 05:54:02;;;;;;;18.03;14.37;;;;;;;;;;5049189;28;20184;-77
2022/09/11 05:56:28;;;;;;;16.10;13.90;;;;;;;;;;5051806;28;20178;-77
2022/09/11 05:58:53;;;;;;;15.93;14.23;;;;;;;;;;5043419;28;20296;-77
2022/09/11 06:01:23;;;;;;;15.80;14.30;;;;;;;;;;5046367;28;20187;-77
2022/09/11 06:03:49;;;;;;;16.47;14.80;;;;;;;;;;5043088;28;20170;-77
2022/09/11 06:06:16;;;;;;;17.60;15.87;;;;;;;;;;5069707;28;20188;-77
2022/09/11 06:08:42;;;;;;;16.37;14.43;;;;;;;;;;5045492;28;20589;-77
2022/09/11 06:11:08;;;;;;;16.43;14.73;;;;;;;;;;5051276;28;20191;-77
2022/09/11 06:13:35;;;;;;;16.20;13.57;;;;;;;;;;5068451;28;20188;-77
2022/09/11 06:16:01;;;;;;;15.13;13.53;;;;;;;;;;5043681;28;20235;-77
2022/09/11 06:18:27;;;;;;;14.80;12.00;;;;;;;;;;5050179;28;20187;-77
2022/09/11 06:20:56;;;;;;;16.37;14.63;;;;;;;;;;5052924;28;20185;-77
2022/09/11 06:23:21;;;;;;;15.03;13.43;;;;;;;;;;5052612;28;20226;-77
2022/09/11 06:25:47;;;;;;;15.37;13.73;;;;;;;;;;5063598;28;20189;-77
2022/09/11 06:28:12;;;;;;;14.87;13.27;;;;;;;;;;5052459;28;20274;-77
2022/09/11 06:30:39;;;;;;;15.00;13.40;;;;;;;;;;5049175;28;20219;-77
2022/09/11 06:33:04;;;;;;;15.40;13.90;;;;;;;;;;5067244;28;20198;-77
2022/09/11 06:35:29;;;;;;;13.27;11.97;;;;;;;;;;5045087;28;20281;-77
2022/09/11 06:37:55;;;;;;;15.07;13.57;;;;;;;;;;5049256;28;20193;-77
2022/09/11 06:40:20;;;;;;;15.73;14.07;;;;;;;;;;5050274;28;20207;-77
2022/09/11 06:42:45;;;;;;;15.47;13.97;;;;;;;;;;5046174;28;20176;-77
2022/09/11 06:45:10;;;;;;;15.97;14.27;;;;;;;;;;5043976;28;20172;-77
2022/09/11 06:47:36;;;;;;;16.33;14.63;;;;;;;;;;5057319;28;20239;-77
2022/09/11 06:50:01;;;;;;;17.00;14.20;;;;;;;;;;5070880;28;20177;-77
2022/09/11 06:52:26;;;;;;;16.03;14.23;;;;;;;;;;5059289;28;20181;-77
2022/09/11 06:54:52;;;;;;;16.10;14.17;;;;;;;;;;5056810;28;20181;-77
2022/09/11 06:57:18;;;;;;;16.53;14.27;;;;;;;;;;5067444;28;20176;-77
2022/09/11 06:59:43;;;;;;;20.33;15.03;;;;;;;;;;5049090;28;20211;-77
2022/09/11 07:02:09;;;;;;;15.80;14.20;;;;;;;;;;5050326;28;20197;-77
2022/09/11 07:04:34;;;;;;;14.53;12.93;;;;;;;;;;5049869;28;20178;-77
2022/09/11 07:06:59;;;;;;;16.30;14.57;;;;;;;;;;5051026;28;20183;-77
2022/09/11 07:09:24;;;;;;;14.43;13.03;;;;;;;;;;5050482;28;20190;-77
2022/09/11 07:11:50;;;;;;;17.27;13.63;;;;;;;;;;5045749;28;20270;-77
2022/09/11 07:14:20;;;;;;;14.17;12.77;;;;;;;;;;5059874;28;20180;-78
2022/09/11 07:16:46;;;;;;;13.50;12.20;;;;;;;;;;5040424;28;20188;-77
2022/09/11 07:19:12;;;;;;;17.60;15.37;;;;;;;;;;5051871;28;20204;-78
2022/09/11 07:21:37;;;;;;;13.27;11.80;;;;;;;;;;5049450;28;20184;-77
2022/09/11 07:24:03;;;;;;;17.53;13.37;;;;;;;;;;5065676;28;20177;-77
2022/09/11 07:26:31;;;;;;;13.73;12.30;;;;;;;;;;5061650;28;20177;-77
2022/09/11 07:28:57;;;;;;;13.50;11.57;;;;;;;;;;5071202;28;20229;-78
2022/09/11 07:31:24;;;;;;;12.67;11.37;;;;;;;;;;5066419;28;20184;-77
2022/09/11 07:33:51;;;;;;;14.27;12.93;;;;;;;;;;5049722;28;20200;-78
2022/09/11 07:36:26;;;;;;;16.00;13.70;;;;;;;;;;5049986;28;20234;-78
2022/09/11 07:38:53;;;;;;;15.90;14.30;;;;;;;;;;5051304;28;20207;-78
2022/09/11 07:41:20;;;;;;;15.43;13.40;;;;;;;;;;5046727;28;20182;-78
2022/09/11 07:43:45;;;;;;;15.13;13.63;;;;;;;;;;5063074;28;20266;-77
2022/09/11 07:46:11;;;;;;;13.80;12.40;;;;;;;;;;5043100;28;20181;-78
2022/09/11 07:48:38;;;;;;;14.57;13.10;;;;;;;;;;5067700;28;20268;-78
2022/09/11 07:51:07;;;;;;;13.30;12.10;;;;;;;;;;5066513;28;20176;-77
2022/09/11 07:53:33;;;;;;;12.80;11.50;;;;;;;;;;5045272;28;20255;-78
2022/09/11 07:56:06;;;;;;;15.47;12.50;;;;;;;;;;5070591;28;20181;-78
2022/09/11 07:58:36;;;;;;;14.40;12.93;;;;;;;;;;5046650;28;20222;-78
2022/09/11 08:01:03;;;;;;;14.13;12.73;;;;;;;;;;5049203;28;20173;-76
2022/09/11 08:03:29;;;;;;;14.90;13.50;;;;;;;;;;5052688;28;20205;-77
2022/09/11 08:06:02;;;;;;;14.40;12.90;;;;;;;;;;5063313;28;20173;-76
2022/09/11 08:08:28;;;;;;;14.93;13.43;;;;;;;;;;5049111;28;20181;-76
2022/09/11 08:10:55;;;;;;;13.27;11.93;;;;;;;;;;5048951;28;20189;-77
2022/09/11 08:13:20;;;;;;;12.87;11.50;;;;;;;;;;5058069;28;20216;-76
2022/09/11 08:15:46;;;;;;;12.77;11.47;;;;;;;;;;5050863;28;20266;-77
2022/09/11 08:18:12;;;;;;;12.70;11.40;;;;;;;;;;5058086;28;20189;-77
2022/09/11 08:20:37;;;;;;;13.43;12.17;;;;;;;;;;5050420;28;20204;-77
2022/09/11 08:23:02;;;;;;;12.17;11.03;;;;;;;;;;5048226;28;20230;-77
2022/09/11 08:25:27;;;;;;;12.13;10.93;;;;;;;;;;5052325;28;20166;-77
2022/09/11 08:27:53;;;;;;;12.83;11.53;;;;;;;;;;5045915;28;20230;-77
2022/09/11 08:30:18;;;;;;;12.00;10.67;;;;;;;;;;5068972;28;20260;-77
2022/09/11 08:32:43;;;;;;;15.57;12.47;;;;;;;;;;5048274;28;20212;-77
2022/09/11 08:35:09;;;;;;;16.37;12.87;;;;;;;;;;5047243;28;20209;-77
2022/09/11 08:37:34;;;;;;;12.97;11.67;;;;;;;;;;5048829;28;20183;-77
2022/09/11 08:40:00;;;;;;;13.70;12.23;;;;;;;;;;5046532;28;20259;-77
2022/09/11 08:42:27;;;;;;;12.60;11.40;;;;;;;;;;5067112;28;20203;-77
2022/09/11 08:44:54;;;;;;;12.63;11.33;;;;;;;;;;5045828;28;20174;-77
2022/09/11 08:47:23;;;;;;;11.80;10.70;;;;;;;;;;5065479;28;20179;-77
2022/09/11 08:50:00;;;;;;;12.20;10.97;;;;;;;;;;5047969;28;20239;-77
2022/09/11 08:52:26;;;;;;;11.43;10.43;;;;;;;;;;5061088;28;20190;-77
2022/09/11 08:54:53;;;;;;;11.60;10.50;;;;;;;;;;5063640;28;20182;-77
2022/09/11 08:57:24;;;;;;;12.37;9.43;;;;;;;;;;5037266;28;20192;-77
2022/09/11 08:59:59;;;;;;;11.00;10.00;;;;;;;;;;5049855;28;20318;-77
2022/09/11 09:02:32;;;;;;;11.10;10.10;;;;;;;;;;5041457;28;20177;-77
2022/09/11 09:05:00;;;;;;;11.83;10.63;;;;;;;;;;5047472;28;20177;-77
2022/09/11 09:07:45;;;;;;;12.77;10.30;;;;;;;;;;5040959;28;20251;-77
2022/09/11 09:10:23;;;;;;;11.47;10.40;;;;;;;;;;5049674;28;20169;-77
2022/09/11 09:12:48;;;;;;;12.00;10.90;;;;;;;;;;5044335;28;20195;-77
2022/09/11 09:15:15;;;;;;;12.17;11.03;;;;;;;;;;5047074;28;20189;-77
2022/09/11 09:17:45;;;;;;;11.97;10.67;;;;;;;;;;5048569;28;20178;-77
2022/09/11 09:20:20;;;;;;;11.77;10.57;;;;;;;;;;5047544;28;20209;-77
2022/09/11 09:22:52;;;;;;;11.63;10.53;;;;;;;;;;5065007;28;20201;-77
2022/09/11 09:25:19;;;;;;;11.97;10.43;;;;;;;;;;5051679;28;20215;-77
2022/09/11 09:27:46;;;;;;;11.20;9.97;;;;;;;;;;5046902;28;20289;-77
2022/09/11 09:30:23;;;;;;;11.43;10.30;;;;;;;;;;5032042;28;20205;-77
2022/09/11 09:32:54;;;;;;;10.57;9.67;;;;;;;;;;5027675;28;20249;-77
2022/09/11 09:35:22;;;;;;;10.53;9.53;;;;;;;;;;5027614;28;20207;-77
2022/09/11 09:37:47;;;;;;;11.10;10.00;;;;;;;;;;5033111;28;20237;-77
2022/09/11 09:40:14;;;;;;;11.83;10.70;;;;;;;;;;5029571;28;20200;-77
2022/09/11 09:42:54;;;;;;;9.97;9.07;;;;;;;;;;5046999;28;20208;-77
2022/09/11 09:45:32;;;;;;;11.07;10.13;;;;;;;;;;5033896;28;20178;-77
2022/09/11 09:47:57;;;;;;;10.77;9.83;;;;;;;;;;5028993;28;20171;-77
2022/09/11 09:50:26;;;;;;;9.67;8.70;;;;;;;;;;5035468;28;20186;-77
2022/09/11 09:52:55;;;;;;;10.87;9.87;;;;;;;;;;5037921;28;20202;-77
2022/09/11 09:55:20;;;;;;;9.40;8.60;;;;;;;;;;5029422;28;20187;-77
2022/09/11 09:57:46;;;;;;;10.57;9.67;;;;;;;;;;5029525;28;20208;-77
2022/09/11 10:00:16;;;;;;;9.40;8.50;;;;;;;;;;5034185;28;20199;-77
2022/09/11 10:02:41;;;;;;;9.30;8.50;;;;;;;;;;5029581;28;20545;-77
2022/09/11 10:05:25;;;;;;;10.10;9.17;;;;;;;;;;5034768;28;20277;-77
2022/09/11 10:08:14;;;;;;;8.90;8.10;;;;;;;;;;5029427;28;20210;-77
2022/09/11 10:10:40;;;;;;;9.33;8.57;;;;;;;;;;5018103;28;20189;-77
2022/09/11 10:13:23;;;;;;;8.83;8.03;;;;;;;;;;5027135;28;20196;-77
2022/09/11 10:15:49;;;;;;;8.77;7.97;;;;;;;;;;5028970;28;20249;-77
2022/09/11 10:18:34;;;;;;;8.77;8.07;;;;;;;;;;5029757;28;20283;-77
2022/09/11 10:21:12;;;;;;;8.33;7.67;;;;;;;;;;5027539;28;20238;-77
2022/09/11 10:23:49;;;;;;;8.73;7.63;;;;;;;;;;5022950;28;20175;-77
2022/09/11 10:26:16;;;;;;;8.97;8.07;;;;;;;;;;5032721;28;21127;-77
2022/09/11 10:28:41;;;;;;;7.87;7.17;;;;;;;;;;5033494;28;20338;-77
2022/09/11 10:31:07;;;;;;;7.60;6.90;;;;;;;;;;5031175;28;20178;-77
2022/09/11 10:33:34;;;;;;;8.33;7.40;;;;;;;;;;5032920;28;20182;-77
2022/09/11 10:36:00;;;;;;;7.23;6.50;;;;;;;;;;5047996;28;20259;-78
2022/09/11 10:38:34;;;;;;;7.07;6.43;;;;;;;;;;5025967;28;20235;-78
2022/09/11 10:41:12;;;;;;;7.13;6.53;;;;;;;;;;5025689;28;20299;-77
2022/09/11 10:43:47;;;;;;;7.17;6.57;;;;;;;;;;5023778;28;20207;-77
2022/09/11 10:46:27;;;;;;;6.77;6.17;;;;;;;;;;5028290;28;20183;-78
2022/09/11 10:48:59;;;;;;;7.17;6.57;;;;;;;;;;5027833;28;20237;-77
2022/09/11 10:51:25;;;;;;;6.33;5.83;;;;;;;;;;5025262;28;20412;-77
2022/09/11 10:53:57;;;;;;;6.07;5.47;;;;;;;;;;5039208;28;20235;-77
2022/09/11 10:56:23;;;;;;;6.87;5.93;;;;;;;;;;5030309;28;20277;-77
2022/09/11 10:58:51;;;;;;;5.43;4.87;;;;;;;;;;5031317;28;20287;-77
2022/09/11 11:01:17;;;;;;;6.20;5.70;;;;;;;;;;5019977;28;20213;-77
2022/09/11 11:03:42;;;;;;;6.23;5.60;;;;;;;;;;5031262;28;20180;-77
2022/09/11 11:06:26;;;;;;;6.43;5.83;;;;;;;;;;5022118;28;20267;-77
2022/09/11 11:08:56;;;;;;;6.47;5.87;;;;;;;;;;5024834;28;20228;-77
2022/09/11 11:11:24;;;;;;;6.17;5.17;;;;;;;;;;5032896;28;20316;-78
2022/09/11 11:13:53;;;;;;;7.13;5.80;;;;;;;;;;5032225;28;20185;-77
2022/09/11 11:16:19;;;;;;;6.10;5.60;;;;;;;;;;5028867;28;20281;-77
2022/09/11 11:18:44;;;;;;;7.03;5.33;;;;;;;;;;5028726;28;20301;-77
2022/09/11 11:21:18;;;;;;;6.47;5.30;;;;;;;;;;5022557;28;20232;-77
2022/09/11 11:24:01;;;;;;;5.10;4.70;;;;;;;;;;5021709;28;20259;-77
2022/09/11 11:26:26;;;;;;;5.63;5.23;;;;;;;;;;5026625;28;20185;-77
2022/09/11 11:29:00;;;;;;;7.63;6.00;;;;;;;;;;5039764;28;20291;-77
2022/09/11 11:31:50;;;;;;;5.43;5.03;;;;;;;;;;5070808;28;20242;-77
2022/09/11 11:34:15;;;;;;;6.03;5.53;;;;;;;;;;5036719;28;20232;-77
2022/09/11 11:36:47;;;;;;;5.20;4.70;;;;;;;;;;5051325;28;20182;-77
2022/09/11 11:39:15;;;;;;;4.60;4.10;;;;;;;;;;5048842;28;20212;-78
2022/09/11 11:41:52;;;;;;;5.37;4.80;;;;;;;;;;5052806;28;20184;-77
2022/09/11 11:44:30;;;;;;;5.10;4.60;;;;;;;;;;5052654;28;20199;-77
2022/09/11 11:46:58;;;;;;;4.77;4.37;;;;;;;;;;5052254;28;20287;-78
2022/09/11 11:49:28;;;;;;;5.43;4.93;;;;;;;;;;5066941;28;20187;-77
2022/09/11 11:51:56;;;;;;;5.33;4.83;;;;;;;;;;5065922;28;20187;-78
2022/09/11 11:54:25;;;;;;;5.07;4.67;;;;;;;;;;5050189;28;20187;-77
2022/09/11 11:57:06;;;;;;;5.00;4.50;;;;;;;;;;5050403;28;20188;-77
2022/09/11 11:59:39;;;;;;;5.03;4.53;;;;;;;;;;5071128;28;20198;-77
2022/09/11 12:02:07;;;;;;;5.20;4.70;;;;;;;;;;5052744;28;20247;-77
2022/09/11 12:04:41;;;;;;;5.40;4.90;;;;;;;;;;5047216;28;20174;-77
2022/09/11 12:07:13;;;;;;;4.90;4.50;;;;;;;;;;5045531;28;20192;-77
2022/09/11 12:09:38;;;;;;;4.30;4.00;;;;;;;;;;5079472;28;20291;-77
2022/09/11 12:12:05;;;;;;;4.47;4.17;;;;;;;;;;5040190;28;20184;-77
2022/09/11 12:14:32;;;;;;;4.23;3.83;;;;;;;;;;5047945;28;20182;-77
2022/09/11 12:17:14;;;;;;;4.57;4.17;;;;;;;;;;5042930;28;20178;-78
2022/09/11 12:20:01;;;;;;;4.77;4.37;;;;;;;;;;5049120;28;20197;-77
2022/09/11 12:22:37;;;;;;;5.03;4.60;;;;;;;;;;5046453;28;20242;-78
2022/09/11 12:25:02;;;;;;;20.60;8.97;;;;;;;;;;5061414;28;20181;-78
2022/09/11 12:27:48;;;;;;;6.80;5.80;;;;;;;;;;5073825;28;20225;-78
2022/09/11 12:30:16;;;;;;;5.33;4.83;;;;;;;;;;5036851;28;20189;-78
2022/09/11 12:32:45;;;;;;;5.17;4.63;;;;;;;;;;5045109;28;20189;-78
2022/09/11 12:35:18;;;;;;;5.83;5.33;;;;;;;;;;5065907;28;20221;-78
2022/09/11 12:37:46;;;;;;;4.53;4.13;;;;;;;;;;5035379;28;20178;-78
2022/09/11 12:40:24;;;;;;;7.13;5.20;;;;;;;;;;5045731;28;20217;-78
2022/09/11 12:43:10;;;;;;;4.67;4.27;;;;;;;;;;5055007;28;20176;-78
2022/09/11 12:45:37;;;;;;;4.77;4.47;;;;;;;;;;5049710;28;20279;-78
2022/09/11 12:48:28;;;;;;;4.07;3.73;;;;;;;;;;5039762;28;20173;-78
2022/09/11 12:50:55;;;;;;;4.40;4.10;;;;;;;;;;5045993;28;20192;-77
2022/09/11 12:53:26;;;;;;;4.13;3.77;;;;;;;;;;5045679;28;20188;-78
2022/09/11 12:55:53;;;;;;;4.50;4.20;;;;;;;;;;5061515;28;20186;-78
2022/09/11 12:58:19;;;;;;;5.07;4.50;;;;;;;;;;5056975;28;20187;-77
2022/09/11 13:00:46;;;;;;;4.10;3.80;;;;;;;;;;5067523;28;20218;-78
2022/09/11 13:03:20;;;;;;;4.13;3.83;;;;;;;;;;5051195;28;20230;-78
2022/09/11 13:06:12;;;;;;;4.80;4.40;;;;;;;;;;5050562;28;20196;-77
2022/09/11 13:08:43;;;;;;;4.40;4.00;;;;;;;;;;5040945;28;20179;-78
2022/09/11 13:11:27;;;;;;;4.57;4.17;;;;;;;;;;5052508;28;20183;-78
2022/09/11 13:13:53;;;;;;;4.57;4.17;;;;;;;;;;5047100;28;20204;-78
2022/09/11 13:16:25;;;;;;;4.13;3.83;;;;;;;;;;5062969;28;20215;-78
2022/09/11 13:18:52;;;;;;;4.67;4.23;;;;;;;;;;5052610;28;20273;-78
2022/09/11 13:21:18;;;;;;;5.33;3.83;;;;;;;;;;5061850;28;20176;-78
2022/09/11 13:23:44;;;;;;;4.20;3.80;;;;;;;;;;5052045;28;20208;-78
2022/09/11 13:26:17;;;;;;;4.00;3.60;;;;;;;;;;5068018;28;20179;-78
2022/09/11 13:28:44;;;;;;;4.43;4.03;;;;;;;;;;5035366;28;20223;-78
2022/09/11 13:31:18;;;;;;;4.60;4.23;;;;;;;;;;5036667;28;20190;-78
2022/09/11 13:33:48;;;;;;;3.40;3.10;;;;;;;;;;5039707;28;20287;-78
2022/09/11 13:36:15;;;;;;;4.37;3.57;;;;;;;;;;5030791;28;20169;-78
2022/09/11 13:38:42;;;;;;;3.73;3.43;;;;;;;;;;5026350;28;20184;-78
2022/09/11 13:41:18;;;;;;;3.23;3.00;;;;;;;;;;5051953;28;20208;-78
2022/09/11 13:43:49;;;;;;;3.60;3.37;;;;;;;;;;5032082;28;20263;-78
2022/09/11 13:46:14;;;;;;;3.40;3.10;;;;;;;;;;5031259;28;20175;-78
2022/09/11 13:48:43;;;;;;;4.07;3.30;;;;;;;;;;5026660;28;20185;-78
2022/09/11 13:51:13;;;;;;;2.97;2.70;;;;;;;;;;5035412;28;20176;-78
2022/09/11 13:53:39;;;;;;;3.50;3.30;;;;;;;;;;5029456;28;20178;-78
2022/09/11 13:56:08;;;;;;;3.83;3.47;;;;;;;;;;5050375;28;20185;-78
2022/09/11 13:58:36;;;;;;;3.67;3.37;;;;;;;;;;5029180;28;20175;-78
2022/09/11 14:01:13;;;;;;;3.63;2.70;;;;;;;;;;5027667;28;20383;-78
2022/09/11 14:03:41;;;;;;;3.20;2.93;;;;;;;;;;5039108;28;20192;-78
2022/09/11 14:06:13;;;;;;;3.33;3.03;;;;;;;;;;5049425;28;20174;-78
2022/09/11 14:08:41;;;;;;;3.13;2.93;;;;;;;;;;5023749;28;20180;-78
2022/09/11 14:11:08;;;;;;;2.97;2.77;;;;;;;;;;5027909;28;21408;-78
2022/09/11 14:13:45;;;;;;;3.10;2.80;;;;;;;;;;5026921;28;20185;-78
2022/09/11 14:16:13;;;;;;;3.40;3.10;;;;;;;;;;5030533;28;20174;-78
2022/09/11 14:18:38;;;;;;;3.30;3.00;;;;;;;;;;5029429;28;20199;-78
2022/09/11 14:21:10;;;;;;;3.20;2.90;;;;;;;;;;5031108;28;20289;-78
2022/09/11 14:23:40;;;;;;;3.37;2.70;;;;;;;;;;5031427;28;20182;-78
2022/09/11 14:26:07;;;;;;;3.03;2.83;;;;;;;;;;5025483;28;20272;-78
2022/09/11 14:28:48;;;;;;;3.60;3.20;;;;;;;;;;5040146;28;20230;-78
2022/09/11 14:31:26;;;;;;;3.03;2.50;;;;;;;;;;5070368;28;20180;-78
2022/09/11 14:34:01;;;;;;;2.63;2.43;;;;;;;;;;5050867;28;20489;-78
2022/09/11 14:36:26;;;;;;;3.00;2.80;;;;;;;;;;5051260;28;20185;-78
2022/09/11 14:38:53;;;;;;;3.47;3.17;;;;;;;;;;5067322;28;20180;-78
2022/09/11 14:41:19;;;;;;;2.70;2.50;;;;;;;;;;5047102;28;20184;-78